createdAt,value
2023-12-22T00:03:27.732Z,86.51
2023-12-22T00:07:12.135Z,86.42
2023-12-22T00:10:55.120Z,87.64
2023-12-22T00:14:38.557Z,89.56
2023-12-22T00:18:21.503Z,85.16
2023-12-22T00:22:04.811Z,89.51
2023-12-22T00:25:49.150Z,98.43
2023-12-22T00:29:32.074Z,100.00
2023-12-22T00:33:15.044Z,100.00
2023-12-22T00:36:57.888Z,100.00
2023-12-22T00:40:40.806Z,100.00
2023-12-22T00:44:26.635Z,100.00
2023-12-22T00:48:09.773Z,100.00
2023-12-22T00:51:52.688Z,100.00
2023-12-22T00:55:35.528Z,100.00
2023-12-22T00:59:18.566Z,100.00
2023-12-22T01:03:02.814Z,100.00
2023-12-22T01:06:45.743Z,100.00
2023-12-22T01:10:28.738Z,100.00
2023-12-22T01:14:12.169Z,100.00
2023-12-22T01:17:55.064Z,100.00
2023-12-22T01:21:39.342Z,100.00
2023-12-22T01:25:22.227Z,100.00
2023-12-22T01:29:05.753Z,100.00
2023-12-22T01:32:48.686Z,100.00
2023-12-22T01:36:31.835Z,100.00
2023-12-22T01:40:16.162Z,100.00
2023-12-22T01:43:59.142Z,100.00
2023-12-22T01:47:42.107Z,100.00
2023-12-22T01:51:25.027Z,100.00
2023-12-22T01:55:09.081Z,100.00
2023-12-22T01:58:55.386Z,100.00
2023-12-22T02:02:39.434Z,100.00
2023-12-22T02:06:22.927Z,100.00
2023-12-22T02:10:06.250Z,100.00
2023-12-22T02:13:49.269Z,100.00
2023-12-22T02:17:39.188Z,100.00
2023-12-22T02:21:22.203Z,100.00
2023-12-22T02:25:06.890Z,100.00
2023-12-22T02:28:49.972Z,100.00
2023-12-22T02:32:37.923Z,100.00
2023-12-22T02:36:21.539Z,100.00
2023-12-22T02:40:07.150Z,100.00
2023-12-22T02:43:50.446Z,100.00
2023-12-22T02:47:34.503Z,100.00
2023-12-22T02:51:17.403Z,100.00
2023-12-22T02:55:00.526Z,100.00
2023-12-22T02:58:44.839Z,100.00
2023-12-22T03:02:27.820Z,100.00
2023-12-22T03:06:10.675Z,100.00
2023-12-22T03:09:53.549Z,100.00
2023-12-22T03:13:36.423Z,100.00
2023-12-22T03:17:20.724Z,100.00
2023-12-22T03:21:03.605Z,100.00
2023-12-22T03:24:46.511Z,100.00
2023-12-22T03:28:29.523Z,100.00
2023-12-22T03:32:12.420Z,100.00
2023-12-22T03:35:56.575Z,100.00
2023-12-22T03:39:39.408Z,100.00
2023-12-22T03:43:22.283Z,100.00
2023-12-22T03:47:05.448Z,100.00
2023-12-22T03:50:48.255Z,100.00
2023-12-22T03:54:32.473Z,100.00
2023-12-22T03:58:15.401Z,100.00
2023-12-22T04:02:02.114Z,100.00
2023-12-22T04:05:45.023Z,100.00
2023-12-22T04:09:27.904Z,100.00
2023-12-22T04:13:12.160Z,99.30
2023-12-22T04:16:55.057Z,95.29
2023-12-22T04:20:37.924Z,93.00
2023-12-22T04:24:20.792Z,91.64
2023-12-22T04:28:03.657Z,89.67
2023-12-22T04:31:47.872Z,88.29
2023-12-22T04:35:30.799Z,87.29
2023-12-22T04:39:13.752Z,85.93
2023-12-22T04:42:56.606Z,85.05
2023-12-22T04:46:39.543Z,85.73
2023-12-22T04:50:23.949Z,84.33
2023-12-22T04:54:06.860Z,84.63
2023-12-22T04:57:49.960Z,84.38
2023-12-22T05:01:33.015Z,85.09
2023-12-22T05:05:16.045Z,83.39
2023-12-22T05:09:00.337Z,81.95
2023-12-22T05:12:43.214Z,82.47
2023-12-22T05:16:26.364Z,82.44
2023-12-22T05:20:10.887Z,82.27
2023-12-22T05:23:53.840Z,81.89
2023-12-22T05:27:38.112Z,81.95
2023-12-22T05:31:21.552Z,81.85
2023-12-22T05:35:04.720Z,81.05
2023-12-22T05:38:49.002Z,81.37
2023-12-22T05:42:31.844Z,80.54
2023-12-22T05:46:16.057Z,82.62
2023-12-22T05:49:59.019Z,85.72
2023-12-22T05:53:42.401Z,87.78
2023-12-22T05:57:27.285Z,91.06
2023-12-22T06:01:10.311Z,94.12
2023-12-22T06:04:54.745Z,97.49
2023-12-22T06:08:37.718Z,98.12
2023-12-22T06:12:20.715Z,100.00
2023-12-22T06:16:03.574Z,100.00
2023-12-22T06:19:46.452Z,100.00
2023-12-22T06:23:34.252Z,100.00
2023-12-22T06:27:17.991Z,100.00
2023-12-22T06:31:00.878Z,100.00
2023-12-22T06:34:43.873Z,100.00
2023-12-22T06:38:26.771Z,100.00
2023-12-22T06:42:13.359Z,100.00
2023-12-22T06:45:56.555Z,98.00
2023-12-22T06:49:39.747Z,92.62
2023-12-22T06:53:26.166Z,90.97
2023-12-22T06:57:12.140Z,90.39
2023-12-22T07:00:55.217Z,89.72
2023-12-22T07:05:07.963Z,89.81
2023-12-22T07:09:30.697Z,87.47
2023-12-22T07:13:14.902Z,87.54
2023-12-22T07:16:59.298Z,86.09
2023-12-22T07:20:42.429Z,86.81
2023-12-22T07:24:25.465Z,87.98
2023-12-22T07:28:08.796Z,89.67
2023-12-22T07:31:53.533Z,92.52
2023-12-22T07:35:36.858Z,96.21
2023-12-22T07:39:20.391Z,98.57
2023-12-22T07:43:04.922Z,96.42
2023-12-22T07:50:34.291Z,93.63
2023-12-22T07:54:18.303Z,89.50
2023-12-22T07:58:01.295Z,88.74
2023-12-22T08:01:44.331Z,86.61
2023-12-22T08:05:27.642Z,82.42
2023-12-22T08:09:11.857Z,83.14
2023-12-22T08:12:54.784Z,82.97
2023-12-22T08:16:37.675Z,84.90
2023-12-22T08:20:22.936Z,93.36
2023-12-22T08:24:19.527Z,98.54
2023-12-22T08:28:06.570Z,100.00
2023-12-22T08:31:49.953Z,100.00
2023-12-22T08:35:33.028Z,100.00
2023-12-22T08:39:17.472Z,100.00
2023-12-22T08:43:01.879Z,100.00
2023-12-22T08:46:45.086Z,100.00
2023-12-22T08:50:27.996Z,100.00
2023-12-22T08:54:10.844Z,100.00
2023-12-22T08:58:00.029Z,100.00
2023-12-22T09:01:46.102Z,97.23
2023-12-22T09:05:29.178Z,95.46
2023-12-22T09:09:12.102Z,95.08
2023-12-22T09:12:56.310Z,95.56
2023-12-22T09:16:39.848Z,92.15
2023-12-22T09:20:22.929Z,91.33
2023-12-22T09:24:06.451Z,89.69
2023-12-22T09:27:49.561Z,86.99
2023-12-22T09:31:34.441Z,86.45
2023-12-22T09:35:17.522Z,86.42
2023-12-22T09:39:00.495Z,86.05
2023-12-22T09:42:44.905Z,85.21
2023-12-22T09:46:27.940Z,83.35
2023-12-22T09:50:12.551Z,83.35
2023-12-22T09:53:56.388Z,83.26
2023-12-22T09:57:40.482Z,83.04
2023-12-22T10:01:24.806Z,83.49
2023-12-22T10:05:08.642Z,84.71
2023-12-22T10:08:53.267Z,87.87
2023-12-22T10:12:36.605Z,91.62
2023-12-22T10:16:19.629Z,98.10
2023-12-22T10:20:02.594Z,100.00
2023-12-22T10:23:45.743Z,100.00
2023-12-22T10:27:32.932Z,100.00
2023-12-22T10:31:15.887Z,100.00
2023-12-22T10:34:59.390Z,100.00
2023-12-22T10:38:44.366Z,100.00
2023-12-22T10:42:28.176Z,100.00
2023-12-22T10:46:14.249Z,100.00
2023-12-22T10:49:57.269Z,100.00
2023-12-22T10:53:43.056Z,100.00
2023-12-22T10:57:26.153Z,100.00
2023-12-22T11:01:09.721Z,100.00
2023-12-22T11:04:59.254Z,100.00
2023-12-22T11:08:42.467Z,100.00
2023-12-22T11:12:26.889Z,100.00
2023-12-22T11:16:10.034Z,100.00
2023-12-22T11:19:56.171Z,100.00
2023-12-22T11:23:40.788Z,100.00
2023-12-22T11:27:23.808Z,100.00
2023-12-22T11:31:06.857Z,100.00
2023-12-22T11:34:51.196Z,100.00
2023-12-22T11:38:35.476Z,100.00
2023-12-22T11:42:21.028Z,100.00
2023-12-22T11:46:04.263Z,100.00
2023-12-22T11:49:47.791Z,100.00
2023-12-22T11:53:33.963Z,100.00
2023-12-22T11:57:39.841Z,100.00
2023-12-22T12:01:24.436Z,100.00
2023-12-22T12:05:09.611Z,100.00
2023-12-22T12:08:53.030Z,100.00
2023-12-22T12:12:37.779Z,100.00
2023-12-22T12:16:22.695Z,100.00
2023-12-22T12:20:08.559Z,100.00
2023-12-22T12:23:51.863Z,100.00
2023-12-22T12:27:35.768Z,100.00
2023-12-22T12:31:20.100Z,100.00
2023-12-22T12:35:04.200Z,100.00
2023-12-22T12:38:54.976Z,100.00
2023-12-22T12:42:38.979Z,100.00
2023-12-22T12:46:23.329Z,100.00
2023-12-22T12:50:06.890Z,99.37
2023-12-22T12:53:49.857Z,99.22
2023-12-22T12:57:32.742Z,98.16
2023-12-22T13:01:25.779Z,97.09
2023-12-22T13:05:23.935Z,96.35
2023-12-22T13:09:07.035Z,96.08
2023-12-22T13:12:50.257Z,95.73
2023-12-22T13:16:33.507Z,98.02
2023-12-22T13:20:17.052Z,99.07
2023-12-22T13:24:15.345Z,99.73
2023-12-22T13:27:59.472Z,100.00
2023-12-22T13:31:44.269Z,100.00
2023-12-22T13:35:27.912Z,100.00
2023-12-22T13:39:13.607Z,100.00
2023-12-22T13:42:57.191Z,100.00
2023-12-22T13:46:42.327Z,100.00
2023-12-22T13:50:25.428Z,100.00
2023-12-22T13:54:08.552Z,100.00
2023-12-22T13:58:01.472Z,100.00
2023-12-22T14:01:44.431Z,100.00
2023-12-22T14:05:30.564Z,100.00
2023-12-22T14:09:14.919Z,100.00
2023-12-22T14:12:59.795Z,100.00
2023-12-22T14:16:42.751Z,100.00
2023-12-22T14:20:26.181Z,100.00
2023-12-22T14:24:09.483Z,100.00
2023-12-22T14:27:53.942Z,100.00
2023-12-22T14:31:38.468Z,100.00
2023-12-22T14:35:21.445Z,100.00
2023-12-22T14:39:06.362Z,100.00
2023-12-22T14:42:49.378Z,100.00
2023-12-22T14:46:32.291Z,99.51
2023-12-22T14:50:16.891Z,100.00
2023-12-22T14:53:59.949Z,100.00
2023-12-22T14:57:42.865Z,100.00
2023-12-22T15:01:26.182Z,100.00
2023-12-22T15:05:10.441Z,100.00
2023-12-22T15:08:54.783Z,100.00
2023-12-22T15:12:39.117Z,100.00
2023-12-22T15:16:23.657Z,100.00
2023-12-22T15:20:12.484Z,100.00
2023-12-22T15:23:57.480Z,100.00
2023-12-22T15:27:41.124Z,100.00
2023-12-22T15:31:25.698Z,100.00
2023-12-22T15:35:09.626Z,100.00
2023-12-22T15:38:53.545Z,100.00
2023-12-22T15:42:37.824Z,100.00
2023-12-22T15:46:20.744Z,100.00
2023-12-22T15:50:03.932Z,100.00
2023-12-22T15:53:47.088Z,100.00
2023-12-22T15:57:30.426Z,100.00
2023-12-22T16:01:16.352Z,100.00
2023-12-22T16:04:59.772Z,100.00
2023-12-22T16:08:43.127Z,100.00
2023-12-22T16:12:26.264Z,100.00
2023-12-22T16:16:11.992Z,100.00
2023-12-22T16:19:56.425Z,100.00
2023-12-22T16:23:39.379Z,100.00
2023-12-22T16:27:22.428Z,100.00
2023-12-22T16:31:05.723Z,100.00
2023-12-22T16:34:48.922Z,100.00
2023-12-22T16:38:33.459Z,100.00
2023-12-22T16:42:16.486Z,100.00
2023-12-22T16:45:59.397Z,100.00
2023-12-22T16:49:43.850Z,100.00
2023-12-22T16:53:28.005Z,100.00
2023-12-22T16:57:12.440Z,100.00
2023-12-22T17:01:14.851Z,100.00
2023-12-22T17:04:58.564Z,100.00
2023-12-22T17:08:42.864Z,100.00
2023-12-22T17:12:27.325Z,100.00
2023-12-22T17:16:11.326Z,100.00
2023-12-22T17:19:55.045Z,100.00
2023-12-22T17:23:37.980Z,100.00
2023-12-22T17:27:20.911Z,100.00
2023-12-22T17:31:07.155Z,100.00
2023-12-22T17:34:50.067Z,100.00
2023-12-22T17:38:32.997Z,100.00
2023-12-22T17:42:15.940Z,100.00
2023-12-22T17:45:58.897Z,100.00
2023-12-22T17:49:43.123Z,100.00
2023-12-22T17:53:27.253Z,100.00
2023-12-22T17:57:13.606Z,100.00
2023-12-22T18:00:56.556Z,100.00
2023-12-22T18:04:39.865Z,100.00
2023-12-22T18:08:24.267Z,100.00
2023-12-22T18:12:07.955Z,100.00
2023-12-22T18:15:50.854Z,100.00
2023-12-22T18:19:34.943Z,100.00
2023-12-22T18:23:20.804Z,100.00
2023-12-22T18:27:05.691Z,100.00
2023-12-22T18:30:48.731Z,100.00
2023-12-22T18:34:31.694Z,100.00
2023-12-22T18:38:14.701Z,100.00
2023-12-22T18:41:57.728Z,100.00
2023-12-22T18:45:42.253Z,100.00
2023-12-22T18:49:25.234Z,100.00
2023-12-22T18:53:09.922Z,97.48
2023-12-22T18:56:53.029Z,97.99
2023-12-22T19:00:35.960Z,94.99
2023-12-22T19:04:20.586Z,94.24
2023-12-22T19:08:03.780Z,92.44
2023-12-22T19:11:47.696Z,91.85
2023-12-22T19:15:30.743Z,92.54
2023-12-22T19:19:14.093Z,92.21
2023-12-22T19:22:58.670Z,91.27
2023-12-22T19:26:42.602Z,90.95
2023-12-22T19:30:25.584Z,91.56
2023-12-22T19:34:08.727Z,91.81
2023-12-22T19:37:51.975Z,92.93
2023-12-22T19:41:36.429Z,93.24
2023-12-22T19:45:19.636Z,95.21
2023-12-22T19:49:04.459Z,95.54
2023-12-22T19:52:47.522Z,93.71
2023-12-22T19:56:30.452Z,93.99
2023-12-22T20:00:16.034Z,94.54
2023-12-22T20:03:59.939Z,95.90
2023-12-22T20:07:43.164Z,96.17
2023-12-22T20:11:28.358Z,95.15
2023-12-22T20:15:12.342Z,92.59
2023-12-22T20:18:59.233Z,92.96
2023-12-22T20:22:42.360Z,92.10
2023-12-22T20:26:25.253Z,90.93
2023-12-22T20:30:09.661Z,88.97
2023-12-22T20:33:53.130Z,86.64
2023-12-22T20:37:38.583Z,86.79
2023-12-22T20:41:23.880Z,85.87
2023-12-22T20:45:08.163Z,86.75
2023-12-22T20:48:51.219Z,87.40
2023-12-22T20:52:35.077Z,85.85
2023-12-22T20:56:20.721Z,86.38
2023-12-22T21:00:04.577Z,85.52
2023-12-22T21:03:47.479Z,85.19
2023-12-22T21:07:30.903Z,84.89
2023-12-22T21:11:14.067Z,85.16
2023-12-22T21:14:58.733Z,85.33
2023-12-22T21:18:41.721Z,85.23
2023-12-22T21:22:24.673Z,87.50
2023-12-22T21:26:07.626Z,88.93
2023-12-22T21:29:50.568Z,90.03
2023-12-22T21:33:34.910Z,91.84
2023-12-22T21:37:20.728Z,93.64
2023-12-22T21:41:04.054Z,93.80
2023-12-22T21:44:46.966Z,92.96
2023-12-22T21:48:29.995Z,93.44
2023-12-22T21:52:14.435Z,93.34
2023-12-22T21:55:57.603Z,93.74
2023-12-22T21:59:40.597Z,93.75
2023-12-22T22:03:24.031Z,92.84
2023-12-22T22:07:07.060Z,91.11
2023-12-22T22:10:52.604Z,91.22
2023-12-22T22:14:35.712Z,88.23
2023-12-22T22:18:18.865Z,86.62
2023-12-22T22:22:01.958Z,87.80
2023-12-22T22:25:45.080Z,88.96
2023-12-22T22:29:29.394Z,88.62
2023-12-22T22:33:12.699Z,88.24
2023-12-22T22:36:55.689Z,87.77
2023-12-22T22:40:38.668Z,89.05
2023-12-22T22:44:21.672Z,92.96
2023-12-22T22:48:06.861Z,96.28
2023-12-22T22:51:49.922Z,97.76
2023-12-22T22:55:32.806Z,97.28
2023-12-22T22:59:16.495Z,96.26
2023-12-22T23:03:00.370Z,96.71
2023-12-22T23:06:44.683Z,95.44
2023-12-22T23:10:28.015Z,95.22
2023-12-22T23:14:10.983Z,94.91
2023-12-22T23:17:54.781Z,94.46
2023-12-22T23:21:37.936Z,94.53
2023-12-22T23:25:23.249Z,95.34
2023-12-22T23:29:06.222Z,95.96
2023-12-22T23:32:49.300Z,95.08
2023-12-22T23:36:32.315Z,95.97
2023-12-22T23:40:15.504Z,94.36
2023-12-22T23:43:59.828Z,93.54
2023-12-22T23:47:42.875Z,92.87
2023-12-22T23:51:26.031Z,92.43
2023-12-22T23:55:09.920Z,92.90
2023-12-22T23:58:52.977Z,92.81
